createdAt,value
2016-01-05T00:02:01.146Z,72
2016-01-05T00:02:59.930Z,71
2016-01-05T00:04:00.728Z,71
2016-01-05T00:05:01.544Z,72
2016-01-05T00:06:02.609Z,72
2016-01-05T00:07:03.253Z,72
2016-01-05T00:08:04.896Z,72
2016-01-05T00:09:05.821Z,72
2016-01-05T00:10:06.902Z,72
2016-01-05T00:11:07.951Z,72
2016-01-05T00:12:09.082Z,72
2016-01-05T00:13:11.068Z,72
2016-01-05T00:14:11.930Z,72
2016-01-05T00:15:12.995Z,72
2016-01-05T00:16:14.326Z,72
2016-01-05T00:17:15.391Z,72
2016-01-05T00:18:16.457Z,72
2016-01-05T00:20:18.603Z,72
2016-01-05T00:21:22.668Z,72
2016-01-05T00:22:20.780Z,72
2016-01-05T00:23:22.580Z,72
2016-01-05T00:24:23.629Z,72
2016-01-05T00:25:27.726Z,71
2016-01-05T00:26:25.541Z,71
2016-01-05T00:27:26.075Z,71
2016-01-05T00:28:26.875Z,71
2016-01-05T00:29:27.784Z,71
2016-01-05T00:31:29.368Z,71
2016-01-05T00:32:33.557Z,71
2016-01-05T00:33:32.002Z,71
2016-01-05T00:34:32.770Z,71
2016-01-05T00:35:33.602Z,71
2016-01-05T00:36:34.416Z,71
2016-01-05T00:37:35.200Z,71
2016-01-05T00:38:36.016Z,71
2016-01-05T00:39:36.831Z,71
2016-01-05T00:40:37.646Z,71
2016-01-05T00:41:41.446Z,71
2016-01-05T00:42:42.324Z,71
2016-01-05T00:43:41.092Z,71
2016-01-05T00:44:41.938Z,72
2016-01-05T00:45:42.988Z,72
2016-01-05T00:46:44.037Z,72
2016-01-05T00:49:47.233Z,72
2016-01-05T00:50:48.314Z,72
2016-01-05T00:51:49.410Z,72
2016-01-05T00:52:50.507Z,72
2016-01-05T00:53:52.557Z,72
2016-01-05T00:54:53.340Z,72
2016-01-05T00:55:54.406Z,71
2016-01-05T00:56:55.268Z,72
2016-01-05T00:57:56.348Z,71
2016-01-05T00:59:00.132Z,71
2016-01-05T00:59:57.917Z,72
2016-01-05T01:00:58.997Z,72
2016-01-05T01:02:03.079Z,72
2016-01-05T01:03:01.425Z,72
2016-01-05T01:05:04.540Z,72
2016-01-05T01:06:05.870Z,72
2016-01-05T01:07:07.217Z,72
2016-01-05T01:08:08.548Z,72
2016-01-05T01:09:09.520Z,72
2016-01-05T01:10:10.928Z,72
2016-01-05T01:11:11.978Z,72
2016-01-05T01:12:13.059Z,72
2016-01-05T01:13:14.452Z,72
2016-01-05T01:14:16.220Z,72
2016-01-05T01:15:17.769Z,72
2016-01-05T01:16:19.053Z,72
2016-01-05T01:17:20.213Z,72
2016-01-05T01:18:21.809Z,72
2016-01-05T01:19:22.827Z,72
2016-01-05T01:20:24.174Z,72
2016-01-05T01:21:28.477Z,72
2016-01-05T01:22:27.590Z,73
2016-01-05T01:23:28.436Z,73
2016-01-05T01:24:30.220Z,73
2016-01-05T01:25:34.801Z,72
2016-01-05T01:26:36.132Z,72
2016-01-05T01:27:34.181Z,72
2016-01-05T01:28:38.512Z,72
2016-01-05T01:29:36.842Z,72
2016-01-05T01:32:40.069Z,72
2016-01-05T01:33:41.448Z,72
2016-01-05T01:35:44.515Z,72
2016-01-05T01:36:45.612Z,72
2016-01-05T01:37:46.911Z,72
2016-01-05T01:38:47.961Z,72
2016-01-05T01:39:49.042Z,72
2016-01-05T01:40:50.107Z,72
2016-01-05T01:41:51.172Z,72
2016-01-05T01:42:52.284Z,72
2016-01-05T01:43:56.369Z,72
2016-01-05T01:44:55.072Z,72
2016-01-05T01:45:56.464Z,72
2016-01-05T01:47:00.798Z,72
2016-01-05T01:47:59.316Z,72
2016-01-05T01:50:01.791Z,72
2016-01-05T01:51:03.122Z,72
2016-01-05T01:52:04.405Z,72
2016-01-05T01:53:05.768Z,72
2016-01-05T01:54:06.879Z,72
2016-01-05T01:55:08.836Z,72
2016-01-05T01:56:10.088Z,72
2016-01-05T01:57:11.279Z,72
2016-01-05T01:58:12.610Z,72
2016-01-05T01:59:16.940Z,72
2016-01-05T02:00:15.552Z,72
2016-01-05T02:01:16.601Z,72
2016-01-05T02:02:18.151Z,72
2016-01-05T02:03:18.965Z,72
2016-01-05T02:04:20.344Z,72
2016-01-05T02:05:22.128Z,72
2016-01-05T02:06:26.490Z,72
2016-01-05T02:07:24.962Z,72
2016-01-05T02:09:26.868Z,71
2016-01-05T02:10:27.672Z,71
2016-01-05T02:11:31.477Z,71
2016-01-05T02:12:29.297Z,72
2016-01-05T02:13:30.810Z,72
2016-01-05T02:14:31.997Z,72
2016-01-05T02:15:33.746Z,72
2016-01-05T02:16:35.073Z,72
2016-01-05T02:17:36.119Z,71
2016-01-05T02:18:36.948Z,72
2016-01-05T02:19:38.027Z,72
2016-01-05T02:20:39.091Z,72
2016-01-05T02:21:40.390Z,72
2016-01-05T02:22:41.922Z,72
2016-01-05T02:23:43.049Z,72
2016-01-05T02:24:44.145Z,72
2016-01-05T02:25:45.928Z,72
2016-01-05T02:26:47.259Z,72
2016-01-05T02:27:51.589Z,72
2016-01-05T02:28:49.905Z,72
2016-01-05T02:29:51.220Z,73
2016-01-05T02:30:52.800Z,72
2016-01-05T02:31:54.147Z,72
2016-01-05T02:32:55.462Z,72
2016-01-05T02:33:56.778Z,72
2016-01-05T02:34:58.233Z,72
2016-01-05T02:35:59.689Z,72
2016-01-05T02:37:00.739Z,72
2016-01-05T02:38:01.835Z,72
2016-01-05T02:39:02.885Z,72
2016-01-05T02:40:04.450Z,72
2016-01-05T02:41:05.562Z,72
2016-01-05T02:42:07.190Z,72
2016-01-05T02:43:08.162Z,72
2016-01-05T02:44:09.507Z,72
2016-01-05T02:45:10.619Z,72
2016-01-05T02:46:12.420Z,72
2016-01-05T02:47:13.719Z,72
2016-01-05T02:48:15.332Z,72
2016-01-05T02:49:19.115Z,72
2016-01-05T02:50:20.180Z,72
2016-01-05T02:51:18.496Z,72
2016-01-05T02:52:19.826Z,72
2016-01-05T02:53:21.141Z,72
2016-01-05T02:54:22.487Z,72
2016-01-05T02:55:26.850Z,72
2016-01-05T02:56:25.618Z,72
2016-01-05T02:57:26.965Z,72
2016-01-05T02:58:28.296Z,72
2016-01-05T02:59:29.614Z,72
2016-01-05T03:00:33.945Z,72
2016-01-05T03:01:32.198Z,72
2016-01-05T03:02:33.762Z,72
2016-01-05T03:03:34.890Z,72
2016-01-05T03:04:39.252Z,72
2016-01-05T03:05:37.630Z,72
2016-01-05T03:06:39.367Z,72
2016-01-05T03:07:40.697Z,72
2016-01-05T03:08:42.014Z,72
2016-01-05T03:09:43.344Z,72
2016-01-05T03:10:44.440Z,72
2016-01-05T03:11:45.739Z,72
2016-01-05T03:12:47.055Z,72
2016-01-05T03:14:52.185Z,72
2016-01-05T03:15:50.313Z,72
2016-01-05T03:16:52.113Z,72
2016-01-05T03:17:53.146Z,72
2016-01-05T03:18:54.244Z,72
2016-01-05T03:19:55.293Z,72
2016-01-05T03:20:56.357Z,72
2016-01-05T03:21:57.454Z,72
2016-01-05T03:22:58.504Z,72
2016-01-05T03:23:59.554Z,71
2016-01-05T03:25:00.384Z,71
2016-01-05T03:26:01.246Z,71
2016-01-05T03:27:06.015Z,71
2016-01-05T03:28:03.829Z,72
2016-01-05T03:29:04.879Z,72
2016-01-05T03:30:05.960Z,72
2016-01-05T03:31:07.041Z,72
2016-01-05T03:32:08.090Z,72
2016-01-05T03:33:09.421Z,72
2016-01-05T03:35:11.754Z,72
2016-01-05T03:36:12.679Z,72
2016-01-05T03:37:14.464Z,72
2016-01-05T03:38:15.513Z,72
2016-01-05T03:40:17.909Z,72
2016-01-05T03:41:18.975Z,72
2016-01-05T03:42:20.055Z,72
2016-01-05T03:43:21.355Z,72
2016-01-05T03:44:22.998Z,72
2016-01-05T03:45:24.017Z,73
2016-01-05T03:46:28.659Z,73
2016-01-05T03:47:27.444Z,73
2016-01-05T03:48:29.305Z,73
2016-01-05T03:49:31.122Z,73
2016-01-05T03:50:32.952Z,73
2016-01-05T03:51:34.783Z,73
2016-01-05T03:52:36.629Z,73
2016-01-05T03:53:38.194Z,73
2016-01-05T03:54:43.041Z,73
2016-01-05T03:55:41.872Z,73
2016-01-05T03:56:46.765Z,73
2016-01-05T03:57:45.549Z,73
2016-01-05T03:58:47.382Z,73
2016-01-05T03:59:49.229Z,73
2016-01-05T04:00:54.043Z,73
2016-01-05T04:01:52.890Z,73
2016-01-05T04:02:54.737Z,73
2016-01-05T04:03:56.599Z,73
2016-01-05T04:05:01.414Z,73
2016-01-05T04:06:00.558Z,73
2016-01-05T04:07:05.138Z,73
2016-01-05T04:09:05.753Z,73
2016-01-05T04:10:07.334Z,73
2016-01-05T04:11:09.102Z,73
2016-01-05T04:12:10.479Z,73
2016-01-05T04:13:12.061Z,73
2016-01-05T04:14:13.657Z,73
2016-01-05T04:15:15.223Z,73
2016-01-05T04:16:19.803Z,73
2016-01-05T04:17:18.478Z,73
2016-01-05T04:18:19.777Z,73
2016-01-05T04:19:21.795Z,73
2016-01-05T04:20:23.642Z,73
2016-01-05T04:22:27.304Z,73
2016-01-05T04:23:29.416Z,74
2016-01-05T04:24:32.044Z,74
2016-01-05T04:25:30.265Z,74
2016-01-05T04:27:27.817Z,74
2016-01-05T04:29:28.495Z,74
2016-01-05T04:31:25.110Z,74
2016-01-05T04:32:23.596Z,74
2016-01-05T04:33:25.116Z,74
2016-01-05T04:35:23.417Z,75
2016-01-05T04:37:21.580Z,76
2016-01-05T04:38:26.347Z,76
2016-01-05T04:39:23.147Z,76
2016-01-05T04:40:22.916Z,76
2016-01-05T04:41:22.450Z,76
2016-01-05T04:42:25.186Z,76
2016-01-05T04:43:21.768Z,76
2016-01-05T04:44:21.863Z,76
2016-01-05T04:45:21.319Z,76
2016-01-05T04:46:21.369Z,76
2016-01-05T04:47:21.465Z,76
2016-01-05T04:48:23.234Z,77
2016-01-05T04:49:23.565Z,77
2016-01-05T04:50:23.849Z,77
2016-01-05T04:51:24.148Z,77
2016-01-05T04:52:24.448Z,77
2016-01-05T04:53:24.748Z,77
2016-01-05T04:54:25.047Z,76
2016-01-05T04:55:25.081Z,76
2016-01-05T04:56:25.178Z,76
2016-01-05T04:57:24.976Z,76
2016-01-05T04:58:26.729Z,76
2016-01-05T04:59:26.515Z,76
2016-01-05T05:00:26.048Z,76
2016-01-05T05:01:25.785Z,76
2016-01-05T05:03:27.634Z,76
2016-01-05T05:04:24.168Z,75
2016-01-05T05:05:23.420Z,75
2016-01-05T05:06:22.686Z,75
2016-01-05T05:07:22.017Z,75
2016-01-05T05:08:24.039Z,75
2016-01-05T05:09:23.086Z,75
2016-01-05T05:10:22.353Z,76
2016-01-05T05:11:21.887Z,76
2016-01-05T05:12:21.422Z,75
2016-01-05T05:13:20.675Z,76
2016-01-05T05:14:20.411Z,76
2016-01-05T05:15:19.758Z,76
2016-01-05T05:16:19.526Z,76
2016-01-05T05:17:22.326Z,76
2016-01-05T05:18:20.906Z,76
2016-01-05T05:19:20.971Z,76
2016-01-05T05:20:20.459Z,76
2016-01-05T05:21:20.258Z,76
2016-01-05T05:22:20.042Z,76
2016-01-05T05:23:23.107Z,76
2016-01-05T05:24:20.126Z,77
2016-01-05T05:25:20.425Z,76
2016-01-05T05:26:20.460Z,76
2016-01-05T05:27:20.915Z,76
2016-01-05T05:29:21.873Z,76
2016-01-05T05:30:21.642Z,76
2016-01-05T05:31:21.426Z,76
2016-01-05T05:32:20.944Z,75
2016-01-05T05:33:20.244Z,75
2016-01-05T05:34:19.185Z,75
2016-01-05T05:35:18.765Z,76
2016-01-05T05:36:18.299Z,75
2016-01-05T05:37:17.630Z,75
2016-01-05T05:38:19.399Z,75
2016-01-05T05:39:18.667Z,75
2016-01-05T05:40:17.966Z,75
2016-01-05T05:41:17.203Z,75
2016-01-05T05:42:16.487Z,75
2016-01-05T05:43:16.084Z,75
2016-01-05T05:44:15.227Z,75
2016-01-05T05:45:14.309Z,75
2016-01-05T05:46:13.139Z,76
2016-01-05T05:47:13.142Z,76
2016-01-05T05:48:14.942Z,76
2016-01-05T05:49:14.475Z,76
2016-01-05T05:50:14.305Z,76
2016-01-05T05:51:13.528Z,76
2016-01-05T05:52:13.296Z,75
2016-01-05T05:53:12.580Z,75
2016-01-05T05:54:11.864Z,76
2016-01-05T05:55:11.382Z,76
2016-01-05T05:56:10.917Z,76
2016-01-05T05:58:12.531Z,76
2016-01-05T06:01:13.304Z,76
2016-01-05T06:02:11.667Z,76
2016-01-05T06:03:11.450Z,76
2016-01-05T06:04:14.235Z,76
2016-01-05T06:05:11.019Z,76
2016-01-05T06:06:10.803Z,76
2016-01-05T06:07:13.680Z,76
2016-01-05T06:08:12.432Z,76
2016-01-05T06:09:15.483Z,77
2016-01-05T06:10:12.766Z,76
2016-01-05T06:11:12.816Z,76
2016-01-05T06:12:12.599Z,76
2016-01-05T06:13:12.384Z,76
2016-01-05T06:14:12.183Z,76
2016-01-05T06:15:11.968Z,76
2016-01-05T06:16:11.751Z,76
2016-01-05T06:17:11.832Z,76
2016-01-05T06:18:13.616Z,76
2016-01-05T06:19:13.416Z,76
2016-01-05T06:20:13.184Z,76
2016-01-05T06:21:13.234Z,76
2016-01-05T06:22:13.298Z,77
2016-01-05T06:23:13.771Z,77
2016-01-05T06:24:13.882Z,77
2016-01-05T06:25:14.463Z,77
2016-01-05T06:27:14.829Z,76
2016-01-05T06:28:16.612Z,76
2016-01-05T06:29:16.334Z,76
2016-01-05T06:30:17.587Z,76
2016-01-05T06:31:16.229Z,76
2016-01-05T06:32:16.279Z,76
2016-01-05T06:33:16.501Z,76
2016-01-05T06:34:16.081Z,76
2016-01-05T06:35:16.162Z,76
2016-01-05T06:36:15.647Z,76
2016-01-05T06:37:15.492Z,76
2016-01-05T06:38:17.264Z,75
2016-01-05T06:39:19.563Z,75
2016-01-05T06:40:18.832Z,75
2016-01-05T06:41:15.097Z,76
2016-01-05T06:42:14.631Z,75
2016-01-05T06:44:13.169Z,75
2016-01-05T06:46:12.017Z,75
2016-01-05T06:47:11.036Z,75
2016-01-05T06:48:12.805Z,75
2016-01-05T06:49:11.822Z,75
2016-01-05T06:50:10.841Z,75
2016-01-05T06:51:09.859Z,75
2016-01-05T06:52:09.128Z,75
2016-01-05T06:55:06.120Z,74
2016-01-05T06:58:05.284Z,74
2016-01-05T06:59:04.053Z,74
2016-01-05T07:00:02.399Z,74
2016-01-05T07:01:01.855Z,74
2016-01-05T07:02:00.514Z,75
2016-01-05T07:02:59.329Z,75
2016-01-05T07:03:58.349Z,75
2016-01-05T07:04:57.350Z,75
2016-01-05T07:05:56.369Z,75
2016-01-05T07:06:55.465Z,75
2016-01-05T07:07:57.218Z,74
2016-01-05T07:08:56.001Z,74
2016-01-05T07:09:54.744Z,74
2016-01-05T07:10:53.527Z,74
2016-01-05T07:11:52.265Z,74
2016-01-05T07:12:51.033Z,74
2016-01-05T07:13:49.786Z,75
2016-01-05T07:14:48.788Z,75
2016-01-05T07:15:48.072Z,74
2016-01-05T07:16:46.873Z,74
2016-01-05T07:17:48.406Z,74
2016-01-05T07:18:47.190Z,74
2016-01-05T07:19:45.927Z,74
2016-01-05T07:20:44.695Z,74
2016-01-05T07:21:43.449Z,74
2016-01-05T07:22:45.232Z,74
2016-01-05T07:23:43.985Z,74
2016-01-05T07:24:39.719Z,74
2016-01-05T07:25:38.488Z,75
2016-01-05T07:26:37.569Z,75
2016-01-05T07:28:38.089Z,74
2016-01-05T07:31:37.410Z,74
2016-01-05T07:32:33.132Z,74
2016-01-05T07:33:31.884Z,75
2016-01-05T07:34:30.887Z,75
2016-01-05T07:35:29.936Z,75
2016-01-05T07:36:29.002Z,75
2016-01-05T07:38:29.788Z,75
2016-01-05T07:39:28.791Z,75
2016-01-05T07:40:27.809Z,75
2016-01-05T07:41:26.829Z,75
2016-01-05T07:42:25.861Z,75
2016-01-05T07:43:24.864Z,75
2016-01-05T07:44:23.883Z,75
2016-01-05T07:45:23.151Z,75
2016-01-05T07:46:25.263Z,75
2016-01-05T07:47:24.016Z,75
2016-01-05T07:48:23.019Z,75
2016-01-05T07:49:22.052Z,74
2016-01-05T07:50:21.102Z,74
2016-01-05T07:51:19.558Z,74
2016-01-05T07:52:18.326Z,74
2016-01-05T07:53:17.313Z,75
2016-01-05T07:54:16.098Z,75
2016-01-05T07:56:14.697Z,75
2016-01-05T07:57:16.777Z,75
2016-01-05T07:58:15.483Z,75
2016-01-05T07:59:14.485Z,75
2016-01-05T08:00:13.519Z,75
2016-01-05T08:01:12.522Z,75
2016-01-05T08:02:11.541Z,75
2016-01-05T08:03:10.559Z,74
2016-01-05T08:04:15.358Z,74
2016-01-05T08:05:10.783Z,74
2016-01-05T08:06:06.896Z,75
2016-01-05T08:07:08.679Z,74
2016-01-05T08:08:07.448Z,74
2016-01-05T08:09:06.201Z,75
2016-01-05T08:11:07.253Z,75
2016-01-05T08:12:03.490Z,75
2016-01-05T08:13:02.773Z,75
2016-01-05T08:14:01.776Z,75
2016-01-05T08:15:00.795Z,75
2016-01-05T08:15:59.873Z,75
2016-01-05T08:19:59.492Z,75
2016-01-05T08:20:58.480Z,75
2016-01-05T08:21:57.748Z,75
2016-01-05T08:22:57.017Z,75
2016-01-05T08:23:56.301Z,75
2016-01-05T08:25:54.134Z,74
2016-01-05T08:26:55.903Z,74
2016-01-05T08:27:54.670Z,74
2016-01-05T08:28:53.423Z,74
2016-01-05T08:29:52.176Z,75
2016-01-05T08:30:50.928Z,74
2016-01-05T08:31:49.761Z,74
2016-01-05T08:32:51.794Z,74
2016-01-05T08:33:54.077Z,74
2016-01-05T08:34:56.486Z,74
2016-01-05T08:35:55.052Z,74
2016-01-05T08:36:56.805Z,74
2016-01-05T08:37:55.354Z,74
2016-01-05T08:38:53.841Z,74
2016-01-05T08:39:52.327Z,74
2016-01-05T08:40:50.846Z,74
2016-01-05T08:42:47.805Z,74
2016-01-05T08:43:46.339Z,74
2016-01-05T08:44:44.810Z,74
2016-01-05T08:45:43.391Z,74
2016-01-05T08:46:45.144Z,74
2016-01-05T08:47:43.647Z,74
2016-01-05T08:48:42.681Z,74
2016-01-05T08:49:40.934Z,74
2016-01-05T08:50:39.701Z,74
2016-01-05T08:51:38.689Z,74
2016-01-05T08:52:37.207Z,74
2016-01-05T08:53:35.695Z,74
2016-01-05T08:54:34.448Z,74
2016-01-05T08:55:33.309Z,74
2016-01-05T08:56:35.078Z,74
2016-01-05T08:57:36.831Z,74
2016-01-05T08:58:32.567Z,74
2016-01-05T08:59:31.601Z,74
2016-01-05T09:00:29.385Z,74
2016-01-05T09:01:28.575Z,74
2016-01-05T09:02:30.329Z,74
2016-01-05T09:03:26.408Z,74
2016-01-05T09:04:25.036Z,75
2016-01-05T09:05:23.680Z,74
2016-01-05T09:06:25.464Z,75
2016-01-05T09:07:24.217Z,74
2016-01-05T09:08:22.686Z,74
2016-01-05T09:09:21.235Z,74
2016-01-05T09:10:23.534Z,74
2016-01-05T09:11:28.915Z,74
2016-01-05T09:12:24.384Z,74
2016-01-05T09:13:22.887Z,74
2016-01-05T09:14:21.655Z,74
2016-01-05T09:15:19.501Z,74
2016-01-05T09:16:21.739Z,74
2016-01-05T09:17:20.257Z,74
2016-01-05T09:18:22.635Z,74
2016-01-05T09:19:24.950Z,74
2016-01-05T09:20:27.312Z,74
2016-01-05T09:21:25.800Z,75
2016-01-05T09:22:24.567Z,74
2016-01-05T09:23:23.069Z,74
2016-01-05T09:24:25.401Z,74
2016-01-05T09:25:27.794Z,74
2016-01-05T09:26:29.578Z,74
2016-01-05T09:27:31.924Z,74
2016-01-05T09:28:34.287Z,74
2016-01-05T09:29:36.618Z,74
2016-01-05T09:30:35.121Z,75
2016-01-05T09:31:34.123Z,75
2016-01-05T09:32:33.141Z,76
2016-01-05T09:34:32.474Z,75
2016-01-05T09:35:31.790Z,75
2016-01-05T09:36:33.559Z,75
2016-01-05T09:37:32.312Z,75
2016-01-05T09:38:31.065Z,74
2016-01-05T09:39:29.582Z,74
2016-01-05T09:40:28.069Z,74
2016-01-05T09:41:26.572Z,74
2016-01-05T09:42:28.918Z,74
2016-01-05T09:43:31.264Z,74
2016-01-05T09:44:33.611Z,74
2016-01-05T09:45:36.051Z,74
2016-01-05T09:46:37.836Z,73
2016-01-05T09:47:39.901Z,73
2016-01-05T09:48:41.966Z,74
2016-01-05T09:49:44.331Z,73
2016-01-05T09:50:46.536Z,73
2016-01-05T09:51:48.507Z,74
2016-01-05T09:52:50.901Z,73
2016-01-05T09:53:52.982Z,73
2016-01-05T09:54:55.063Z,73
2016-01-05T09:55:57.191Z,73
2016-01-05T09:56:59.006Z,74
2016-01-05T09:58:01.321Z,74
2016-01-05T09:59:03.682Z,74
2016-01-05T10:01:08.110Z,74
2016-01-05T10:02:10.472Z,74
2016-01-05T10:03:12.819Z,74
2016-01-05T10:04:15.149Z,74
2016-01-05T10:05:17.496Z,73
2016-01-05T10:06:19.671Z,73
2016-01-05T10:07:21.439Z,74
2016-01-05T10:08:23.785Z,73
2016-01-05T10:09:25.866Z,73
2016-01-05T10:10:27.978Z,73
2016-01-05T10:11:30.059Z,73
2016-01-05T10:12:31.906Z,73
2016-01-05T10:13:33.721Z,73
2016-01-05T10:14:35.552Z,73
2016-01-05T10:15:37.617Z,73
2016-01-05T10:16:39.792Z,73
2016-01-05T10:17:41.559Z,73
2016-01-05T10:18:43.422Z,73
2016-01-05T10:19:45.253Z,73
2016-01-05T10:20:47.068Z,73
2016-01-05T10:21:49.148Z,73
2016-01-05T10:22:51.245Z,73
2016-01-05T10:23:53.092Z,73
2016-01-05T10:24:54.922Z,73
2016-01-05T10:25:56.773Z,73
2016-01-05T10:26:58.666Z,73
2016-01-05T10:28:00.466Z,73
2016-01-05T10:29:02.281Z,73
2016-01-05T10:30:04.096Z,73
2016-01-05T10:31:05.911Z,73
2016-01-05T10:32:07.773Z,73
2016-01-05T10:33:09.604Z,73
2016-01-05T10:34:11.435Z,73
2016-01-05T10:35:13.265Z,73
2016-01-05T10:36:15.096Z,73
2016-01-05T10:37:16.989Z,73
2016-01-05T10:38:18.759Z,73
2016-01-05T10:39:20.620Z,73
2016-01-05T10:40:22.169Z,73
2016-01-05T10:41:23.750Z,73
2016-01-05T10:42:25.331Z,73
2016-01-05T10:43:26.897Z,72
2016-01-05T10:44:28.242Z,73
2016-01-05T10:45:29.809Z,73
2016-01-05T10:46:31.389Z,72
2016-01-05T10:47:32.767Z,72
2016-01-05T10:48:34.566Z,72
2016-01-05T10:49:35.866Z,72
2016-01-05T10:50:37.197Z,73
2016-01-05T10:51:38.762Z,73
2016-01-05T10:52:40.624Z,73
2016-01-05T10:53:42.455Z,73
2016-01-05T10:54:44.520Z,73
2016-01-05T10:55:46.366Z,73
2016-01-05T10:56:47.963Z,72
2016-01-05T10:58:51.078Z,72
2016-01-05T10:59:52.393Z,72
2016-01-05T11:00:53.724Z,72
2016-01-05T11:01:55.054Z,72
2016-01-05T11:02:56.354Z,72
2016-01-05T11:03:57.701Z,72
2016-01-05T11:04:59.001Z,72
2016-01-05T11:06:00.331Z,72
2016-01-05T11:07:01.631Z,72
2016-01-05T11:08:03.023Z,72
2016-01-05T11:09:04.776Z,72
2016-01-05T11:10:05.982Z,72
2016-01-05T11:11:06.907Z,72
2016-01-05T11:12:08.246Z,72
2016-01-05T11:13:09.545Z,72
2016-01-05T11:14:10.882Z,72
2016-01-05T11:15:12.183Z,72
2016-01-05T11:16:13.468Z,72
2016-01-05T11:17:14.785Z,72
2016-01-05T11:18:16.135Z,72
2016-01-05T11:19:17.912Z,73
2016-01-05T11:20:19.519Z,73
2016-01-05T11:21:21.580Z,73
2016-01-05T11:22:23.680Z,73
2016-01-05T11:23:25.179Z,72
2016-01-05T11:24:26.467Z,72
2016-01-05T11:25:28.161Z,72
2016-01-05T11:26:29.194Z,72
2016-01-05T11:27:30.508Z,73
2016-01-05T11:28:32.117Z,73
2016-01-05T11:29:33.886Z,72
2016-01-05T11:30:35.231Z,72
2016-01-05T11:31:36.529Z,73
2016-01-05T11:32:38.125Z,73
2016-01-05T11:33:39.689Z,72
2016-01-05T11:34:41.005Z,73
2016-01-05T11:35:42.585Z,73
2016-01-05T11:36:44.166Z,72
2016-01-05T11:37:45.481Z,72
2016-01-05T11:38:46.858Z,72
2016-01-05T11:39:48.642Z,72
2016-01-05T11:40:49.956Z,73
2016-01-05T11:41:51.553Z,72
2016-01-05T11:42:52.869Z,73
2016-01-05T11:43:54.418Z,73
2016-01-05T11:44:55.983Z,73
2016-01-05T11:45:57.564Z,73
2016-01-05T11:46:59.177Z,73
2016-01-05T11:48:00.772Z,73
2016-01-05T11:49:02.619Z,73
2016-01-05T11:50:04.388Z,73
2016-01-05T11:51:05.969Z,73
2016-01-05T11:52:07.550Z,73
2016-01-05T11:53:09.161Z,73
2016-01-05T11:54:10.696Z,73
2016-01-05T11:55:12.027Z,73
2016-01-05T11:56:13.326Z,73
2016-01-05T11:57:14.688Z,73
2016-01-05T11:58:15.971Z,73
2016-01-05T11:59:17.365Z,73
2016-01-05T12:00:19.133Z,73
2016-01-05T12:01:20.448Z,73
2016-01-05T12:02:21.780Z,72
2016-01-05T12:03:22.568Z,72
2016-01-05T12:04:23.384Z,72
2016-01-05T12:05:24.449Z,72
2016-01-05T12:06:25.545Z,72
2016-01-05T12:07:26.578Z,72
2016-01-05T12:08:27.644Z,72
2016-01-05T12:09:29.037Z,72
2016-01-05T12:10:30.790Z,73
2016-01-05T12:11:32.106Z,73
2016-01-05T12:12:33.437Z,73
2016-01-05T12:13:34.751Z,73
2016-01-05T12:14:36.083Z,73
2016-01-05T12:15:37.397Z,73
2016-01-05T12:16:38.714Z,73
2016-01-05T12:17:40.015Z,73
2016-01-05T12:18:41.377Z,72
2016-01-05T12:19:42.458Z,72
2016-01-05T12:20:44.211Z,72
2016-01-05T12:21:45.041Z,72
2016-01-05T12:22:45.872Z,72
2016-01-05T12:23:46.672Z,72
2016-01-05T12:24:47.472Z,72
2016-01-05T12:25:48.303Z,72
2016-01-05T12:26:49.071Z,72
2016-01-05T12:27:49.886Z,72
2016-01-05T12:28:50.686Z,72
2016-01-05T12:29:51.547Z,72
2016-01-05T12:30:53.316Z,72
2016-01-05T12:31:54.163Z,72
2016-01-05T12:32:54.946Z,72
2016-01-05T12:33:55.730Z,72
2016-01-05T12:34:56.593Z,72
2016-01-05T12:35:57.360Z,71
2016-01-05T12:36:57.895Z,72
2016-01-05T12:37:58.757Z,72
2016-01-05T12:38:59.509Z,72
2016-01-05T12:40:00.404Z,72
2016-01-05T12:41:02.157Z,72
2016-01-05T12:42:02.971Z,72
2016-01-05T12:43:03.756Z,72
2016-01-05T12:44:04.571Z,72
2016-01-05T12:45:05.371Z,72
2016-01-05T12:46:06.185Z,72
2016-01-05T12:47:06.985Z,72
2016-01-05T12:48:07.785Z,72
2016-01-05T12:49:08.600Z,72
2016-01-05T12:50:09.462Z,72
2016-01-05T12:51:11.262Z,72
2016-01-05T12:52:12.045Z,72
2016-01-05T12:53:12.845Z,72
2016-01-05T12:54:13.665Z,71
2016-01-05T12:55:14.199Z,71
2016-01-05T12:56:14.748Z,72
2016-01-05T12:57:15.564Z,72
2016-01-05T12:58:16.379Z,72
2016-01-05T12:59:17.208Z,72
2016-01-05T13:00:18.039Z,72
2016-01-05T13:01:19.807Z,72
2016-01-05T13:02:20.873Z,72
2016-01-05T13:03:21.688Z,72
2016-01-05T13:04:22.471Z,72
2016-01-05T13:05:23.303Z,72
2016-01-05T13:06:24.086Z,72
2016-01-05T13:07:24.887Z,72
2016-01-05T13:08:25.701Z,71
2016-01-05T13:09:26.251Z,72
2016-01-05T13:10:27.112Z,71
2016-01-05T13:11:28.897Z,72
2016-01-05T13:12:29.697Z,71
2016-01-05T13:13:30.231Z,71
2016-01-05T13:14:30.781Z,71
2016-01-05T13:15:31.330Z,71
2016-01-05T13:16:31.629Z,71
2016-01-05T13:17:31.944Z,71
2016-01-05T13:18:32.213Z,71
2016-01-05T13:19:32.497Z,71
2016-01-05T13:20:32.844Z,71
2016-01-05T13:21:34.628Z,71
2016-01-05T13:22:34.911Z,71
2016-01-05T13:23:35.195Z,71
2016-01-05T13:24:35.494Z,71
2016-01-05T13:25:35.778Z,71
2016-01-05T13:26:36.078Z,71
2016-01-05T13:27:36.894Z,71
2016-01-05T13:28:36.693Z,71
2016-01-05T13:29:36.977Z,71
2016-01-05T13:30:37.307Z,70
2016-01-05T13:31:39.091Z,71
2016-01-05T13:32:39.360Z,71
2016-01-05T13:33:39.659Z,71
2016-01-05T13:34:39.944Z,71
2016-01-05T13:35:40.243Z,70
2016-01-05T13:36:40.277Z,70
2016-01-05T13:37:40.296Z,70
2016-01-05T13:38:40.345Z,70
2016-01-05T13:39:40.363Z,70
2016-01-05T13:40:40.459Z,70
2016-01-05T13:41:42.307Z,70
2016-01-05T13:42:42.293Z,70
2016-01-05T13:43:42.046Z,70
2016-01-05T13:44:42.096Z,70
2016-01-05T13:45:41.879Z,70
2016-01-05T13:46:41.679Z,70
2016-01-05T13:47:41.666Z,70
2016-01-05T13:48:41.731Z,71
2016-01-05T13:49:42.015Z,71
2016-01-05T13:50:42.346Z,70
2016-01-05T13:51:44.130Z,70
2016-01-05T13:52:44.148Z,70
2016-01-05T13:53:44.229Z,70
2016-01-05T13:54:43.810Z,70
2016-01-05T13:55:44.266Z,70
2016-01-05T13:56:44.316Z,70
2016-01-05T13:58:43.867Z,70
2016-01-05T13:59:43.652Z,70
2016-01-05T14:00:43.717Z,70
2016-01-05T14:01:45.500Z,71
2016-01-05T14:02:45.800Z,72
2016-01-05T14:03:46.600Z,72
2016-01-05T14:04:47.399Z,72
2016-01-05T14:05:48.199Z,72
2016-01-05T14:06:48.999Z,71
2016-01-05T14:07:49.313Z,71
2016-01-05T14:08:49.599Z,71
2016-01-05T14:09:49.897Z,71
2016-01-05T14:10:50.229Z,71
2016-01-05T14:11:52.013Z,71
2016-01-05T14:12:52.312Z,71
2016-01-05T14:13:52.596Z,71
2016-01-05T14:14:52.895Z,71
2016-01-05T14:15:53.211Z,71
2016-01-05T14:16:53.463Z,71
2016-01-05T14:17:53.763Z,71
2016-01-05T14:18:54.063Z,71
2016-01-05T14:19:54.362Z,71
2016-01-05T14:20:54.974Z,72
2016-01-05T14:21:56.742Z,72
2016-01-05T14:22:57.793Z,73
2016-01-05T14:23:59.122Z,73
2016-01-05T14:25:00.422Z,73
2016-01-05T14:26:01.753Z,73
2016-01-05T14:27:03.084Z,73
2016-01-05T14:28:04.384Z,73
2016-01-05T14:29:05.714Z,73
2016-01-05T14:30:07.030Z,73
2016-01-05T14:31:08.408Z,73
2016-01-05T14:32:10.175Z,73
2016-01-05T14:33:11.757Z,73
2016-01-05T14:34:13.603Z,73
2016-01-05T14:35:15.450Z,73
2016-01-05T14:36:17.249Z,73
2016-01-05T14:37:19.111Z,73
2016-01-05T14:38:20.910Z,74
2016-01-05T14:39:23.007Z,74
2016-01-05T14:40:25.353Z,74
2016-01-05T14:41:27.747Z,74
2016-01-05T14:42:29.530Z,74
2016-01-05T14:43:31.643Z,74
2016-01-05T14:44:33.958Z,74
2016-01-05T14:45:36.324Z,74
2016-01-05T14:46:38.654Z,74
2016-01-05T14:47:41.000Z,74
2016-01-05T14:48:43.081Z,73
2016-01-05T14:49:44.912Z,74
2016-01-05T14:50:47.024Z,74
2016-01-05T14:51:49.401Z,74
2016-01-05T14:52:51.186Z,74
2016-01-05T14:53:53.266Z,74
2016-01-05T14:54:55.379Z,74
2016-01-05T14:55:57.459Z,74
2016-01-05T14:56:59.524Z,74
2016-01-05T14:57:58.027Z,75
2016-01-05T14:58:56.765Z,75
2016-01-05T14:59:55.517Z,76
2016-01-05T15:00:54.801Z,76
2016-01-05T15:01:54.117Z,76
2016-01-05T15:02:55.931Z,76
2016-01-05T15:03:55.153Z,76
2016-01-05T15:04:54.453Z,76
2016-01-05T15:05:54.205Z,76
2016-01-05T15:06:53.989Z,76
2016-01-05T15:07:53.773Z,76
2016-01-05T15:08:53.556Z,76
2016-01-05T15:09:53.356Z,76
2016-01-05T15:10:53.109Z,77
2016-01-05T15:11:53.206Z,77
2016-01-05T15:12:54.974Z,77
2016-01-05T15:13:55.024Z,77